createdAt,value
2018-06-02T00:02:06.742Z,100.27
2018-06-02T00:04:38.651Z,101.43
2018-06-02T00:07:11.295Z,80.93
2018-06-02T00:09:43.209Z,103.40
2018-06-02T00:12:15.084Z,97.47
2018-06-02T00:14:47.008Z,92.97
2018-06-02T00:17:19.743Z,104.20
2018-06-02T00:19:51.654Z,100.57
2018-06-02T00:22:24.304Z,99.40
2018-06-02T00:24:56.220Z,98.63
2018-06-02T00:27:28.119Z,96.30
2018-06-02T00:30:00.022Z,106.30
2018-06-02T00:32:31.928Z,99.90
2018-06-02T00:35:03.838Z,95.80
2018-06-02T00:37:36.486Z,92.03
2018-06-02T00:40:08.399Z,91.87
2018-06-02T00:42:40.279Z,96.57
2018-06-02T00:45:12.185Z,97.30
2018-06-02T00:47:44.071Z,95.87
2018-06-02T00:50:15.999Z,115.17
2018-06-02T00:52:47.874Z,96.03
2018-06-02T00:55:20.553Z,105.73
2018-06-02T00:57:53.211Z,106.50
2018-06-02T01:00:25.111Z,97.30
2018-06-02T01:02:57.001Z,104.00
2018-06-02T01:05:28.947Z,104.20
2018-06-02T01:08:01.603Z,103.23
2018-06-02T01:10:33.506Z,99.07
2018-06-02T01:13:05.390Z,100.70
2018-06-02T01:15:37.302Z,114.77
2018-06-02T01:18:09.190Z,105.20
2018-06-02T01:20:41.875Z,105.40
2018-06-02T01:23:13.769Z,107.10
2018-06-02T01:25:45.682Z,115.70
2018-06-02T01:28:17.570Z,113.33
2018-06-02T01:30:49.458Z,111.67
2018-06-02T01:33:22.117Z,120.83
2018-06-02T01:35:54.019Z,107.23
2018-06-02T01:38:25.897Z,106.67
2018-06-02T01:40:57.806Z,101.80
2018-06-02T01:43:29.692Z,111.90
2018-06-02T01:46:01.611Z,102.67
2018-06-02T01:48:33.726Z,102.67
2018-06-02T01:51:05.663Z,111.17
2018-06-02T01:53:37.562Z,111.73
2018-06-02T01:56:09.726Z,115.37
2018-06-02T01:58:41.602Z,120.17
2018-06-02T02:01:13.741Z,127.90
2018-06-02T02:03:45.855Z,110.63
2018-06-02T02:06:17.795Z,107.57
2018-06-02T02:08:49.689Z,120.73
2018-06-02T02:11:21.599Z,95.87
2018-06-02T02:13:53.486Z,113.23
2018-06-02T02:16:25.387Z,112.33
2018-06-02T02:18:57.277Z,111.13
2018-06-02T02:21:29.202Z,113.90
2018-06-02T02:24:01.867Z,111.57
2018-06-02T02:26:33.998Z,110.53
2018-06-02T02:29:05.882Z,116.40
2018-06-02T02:31:37.808Z,107.83
2018-06-02T02:34:09.691Z,106.57
2018-06-02T02:36:41.605Z,114.70
2018-06-02T02:39:14.261Z,107.87
2018-06-02T02:41:46.170Z,107.37
2018-06-02T02:44:18.060Z,107.67
2018-06-02T02:46:49.973Z,114.87
2018-06-02T02:49:21.872Z,115.40
2018-06-02T02:51:53.774Z,126.57
2018-06-02T02:54:27.419Z,120.23
2018-06-02T02:56:59.570Z,106.40
2018-06-02T02:59:31.762Z,126.10
2018-06-02T03:02:03.671Z,117.53
2018-06-02T03:04:36.339Z,132.40
2018-06-02T03:07:08.247Z,124.17
2018-06-02T03:09:40.126Z,120.97
2018-06-02T03:12:12.060Z,120.00
2018-06-02T03:14:43.947Z,113.40
2018-06-02T03:17:15.855Z,131.57
2018-06-02T03:19:48.506Z,129.63
2018-06-02T03:22:20.423Z,119.50
2018-06-02T03:24:52.307Z,125.57
2018-06-02T03:27:24.220Z,128.60
2018-06-02T03:29:56.871Z,127.47
2018-06-02T03:32:28.794Z,129.80
2018-06-02T03:35:00.691Z,143.17
2018-06-02T03:37:32.599Z,131.57
2018-06-02T03:40:04.483Z,124.43
2018-06-02T03:42:36.384Z,125.43
2018-06-02T03:45:08.268Z,125.90
2018-06-02T03:47:40.950Z,132.63
2018-06-02T03:50:12.842Z,134.53
2018-06-02T03:52:44.743Z,135.80
2018-06-02T03:55:16.648Z,140.67
2018-06-02T03:57:48.556Z,133.67
2018-06-02T04:00:20.451Z,133.20
2018-06-02T04:02:52.362Z,126.87
2018-06-02T04:05:24.242Z,126.20
2018-06-02T04:07:56.447Z,140.47
2018-06-02T04:10:28.340Z,252.00
2018-06-02T04:13:00.259Z,189.10
2018-06-02T04:15:32.186Z,154.90
2018-06-02T04:18:04.113Z,137.83
2018-06-02T04:20:36.012Z,131.43
2018-06-02T04:23:07.923Z,142.40
2018-06-02T04:25:39.826Z,151.10
2018-06-02T04:28:11.747Z,156.60
2018-06-02T04:30:43.638Z,138.93
2018-06-02T04:33:15.540Z,145.30
2018-06-02T04:35:47.423Z,145.73
2018-06-02T04:38:19.555Z,140.27
2018-06-02T04:40:52.211Z,133.70
2018-06-02T04:43:24.116Z,142.73
2018-06-02T04:45:56.290Z,149.83
2018-06-02T04:48:28.191Z,133.17
2018-06-02T04:51:00.087Z,148.40
2018-06-02T04:53:32.997Z,147.27
2018-06-02T04:56:04.878Z,139.10
2018-06-02T04:58:36.790Z,136.20
2018-06-02T05:01:09.447Z,157.30
2018-06-02T05:03:41.655Z,137.10
2018-06-02T05:06:13.551Z,140.10
2018-06-02T05:08:45.448Z,136.73
2018-06-02T05:11:17.340Z,142.87
2018-06-02T05:13:49.250Z,124.10
2018-06-02T05:16:21.133Z,129.47
2018-06-02T05:18:53.067Z,122.43
2018-06-02T05:21:25.726Z,118.63
2018-06-02T05:23:57.621Z,115.93
2018-06-02T05:26:29.503Z,113.67
2018-06-02T05:29:02.189Z,93.57
2018-06-02T05:31:34.874Z,88.73
2018-06-02T05:34:06.786Z,85.17
2018-06-02T05:36:38.666Z,88.60
2018-06-02T05:39:10.585Z,73.87
2018-06-02T05:41:42.454Z,72.63
2018-06-02T05:44:14.372Z,61.13
2018-06-02T05:46:46.253Z,61.03
2018-06-02T05:49:18.406Z,59.27
2018-06-02T05:51:50.288Z,55.37
2018-06-02T05:54:22.192Z,46.20
2018-06-02T05:56:54.086Z,47.43
2018-06-02T05:59:25.999Z,45.13
2018-06-02T06:01:57.880Z,46.60
2018-06-02T06:04:30.571Z,44.53
2018-06-02T06:07:03.224Z,44.23
2018-06-02T06:09:35.127Z,40.07
2018-06-02T06:12:07.019Z,33.10
2018-06-02T06:14:38.917Z,38.17
2018-06-02T06:17:10.802Z,30.90
2018-06-02T06:19:42.702Z,33.20
2018-06-02T06:22:14.590Z,32.70
2018-06-02T06:24:46.537Z,33.03
2018-06-02T06:27:18.411Z,29.77
2018-06-02T06:29:50.315Z,31.30
2018-06-02T06:32:22.231Z,29.83
2018-06-02T06:34:54.364Z,32.33
2018-06-02T06:37:26.257Z,29.30
2018-06-02T06:39:58.154Z,34.90
2018-06-02T06:42:30.042Z,30.90
2018-06-02T06:45:01.946Z,26.27
2018-06-02T06:47:33.831Z,28.17
2018-06-02T06:50:05.746Z,27.87
2018-06-02T06:52:37.626Z,31.07
2018-06-02T06:55:09.527Z,28.00
2018-06-02T06:57:41.703Z,28.90
2018-06-02T07:00:13.604Z,24.43
2018-06-02T07:02:45.483Z,25.30
2018-06-02T07:05:18.146Z,26.47
2018-06-02T07:07:50.990Z,23.90
2018-06-02T07:10:22.880Z,24.53
2018-06-02T07:12:54.765Z,35.10
2018-06-02T07:15:27.442Z,26.47
2018-06-02T07:18:00.094Z,24.60
2018-06-02T07:20:31.995Z,23.33
2018-06-02T07:23:03.882Z,22.27
2018-06-02T07:25:36.030Z,22.27
2018-06-02T07:28:07.930Z,18.27
2018-06-02T07:30:39.881Z,18.73
2018-06-02T07:33:11.742Z,19.87
2018-06-02T07:35:43.663Z,25.70
2018-06-02T07:38:16.303Z,28.50
2018-06-02T07:40:48.222Z,21.60
2018-06-02T07:43:20.100Z,18.60
2018-06-02T07:45:52.015Z,19.50
2018-06-02T07:48:24.678Z,19.00
2018-06-02T07:50:56.585Z,20.70
2018-06-02T07:53:28.471Z,18.10
2018-06-02T07:56:00.381Z,16.20
2018-06-02T07:58:33.088Z,15.20
2018-06-02T08:01:05.015Z,17.58
2018-06-02T08:03:37.687Z,12.93
2018-06-02T08:06:10.371Z,16.73
2018-06-02T08:08:43.090Z,14.02
2018-06-02T08:11:14.941Z,14.50
2018-06-02T08:13:46.837Z,14.57
2018-06-02T08:16:18.751Z,13.07
2018-06-02T08:18:50.645Z,18.17
2018-06-02T08:21:23.312Z,15.30
2018-06-02T08:23:55.458Z,16.33
2018-06-02T08:26:27.370Z,13.82
2018-06-02T08:28:59.276Z,12.05
2018-06-02T08:31:31.185Z,16.02
2018-06-02T08:34:03.075Z,15.05
2018-06-02T08:36:35.984Z,14.57
2018-06-02T08:39:07.875Z,13.38
2018-06-02T08:41:39.781Z,11.95
2018-06-02T08:44:12.423Z,12.23
2018-06-02T08:46:44.326Z,9.35
2018-06-02T08:49:16.979Z,10.27
2018-06-02T08:51:49.297Z,10.38
2018-06-02T08:54:21.203Z,11.20
2018-06-02T08:56:53.330Z,11.05
2018-06-02T08:59:25.215Z,12.93
2018-06-02T09:01:57.117Z,10.52
2018-06-02T09:04:29.763Z,10.00
2018-06-02T09:07:01.670Z,6.68
2018-06-02T09:09:33.554Z,8.23
2018-06-02T09:12:05.461Z,8.15
2018-06-02T09:14:37.343Z,8.02
2018-06-02T09:17:10.239Z,12.27
2018-06-02T09:19:42.127Z,7.53
2018-06-02T09:22:14.047Z,9.93
2018-06-02T09:24:46.717Z,9.50
2018-06-02T09:27:18.618Z,6.43
2018-06-02T09:29:50.766Z,7.15
2018-06-02T09:32:22.671Z,7.37
2018-06-02T09:34:54.576Z,7.60
2018-06-02T09:37:27.241Z,7.57
2018-06-02T09:40:00.155Z,5.95
2018-06-02T09:42:32.058Z,6.12
2018-06-02T09:45:03.952Z,6.28
2018-06-02T09:47:36.619Z,12.15
2018-06-02T09:50:08.507Z,8.13
2018-06-02T09:52:40.408Z,8.45
2018-06-02T09:55:12.290Z,6.25
2018-06-02T09:57:44.240Z,7.47
2018-06-02T10:00:16.083Z,6.30
2018-06-02T10:02:48.023Z,5.40
2018-06-02T10:05:19.894Z,5.80
2018-06-02T10:07:51.802Z,5.43
2018-06-02T10:10:23.691Z,5.35
2018-06-02T10:12:55.591Z,5.65
2018-06-02T10:15:27.470Z,4.97
2018-06-02T10:17:59.362Z,7.25
2018-06-02T10:20:32.011Z,6.47
2018-06-02T10:23:03.915Z,5.30
2018-06-02T10:25:35.783Z,8.35
2018-06-02T10:28:07.683Z,6.03
2018-06-02T10:30:39.571Z,9.30
2018-06-02T10:33:11.865Z,5.25
2018-06-02T10:35:43.795Z,7.12
2018-06-02T10:38:15.666Z,6.93
2018-06-02T10:40:48.326Z,6.87
2018-06-02T10:43:20.531Z,7.90
2018-06-02T10:45:52.410Z,4.65
2018-06-02T10:48:24.309Z,4.75
2018-06-02T10:50:56.202Z,7.78
2018-06-02T10:53:28.875Z,7.20
2018-06-02T10:56:01.526Z,6.78
2018-06-02T10:58:33.450Z,6.70
2018-06-02T11:01:05.334Z,8.68
2018-06-02T11:03:37.227Z,6.50
2018-06-02T11:06:09.879Z,5.20
2018-06-02T11:08:41.781Z,9.13
2018-06-02T11:11:13.675Z,7.75
2018-06-02T11:13:45.583Z,11.30
2018-06-02T11:16:17.459Z,5.12
2018-06-02T11:18:50.133Z,6.37
2018-06-02T11:21:22.778Z,6.35
2018-06-02T11:23:54.707Z,4.05
2018-06-02T11:26:26.591Z,5.85
2018-06-02T11:28:58.831Z,5.35
2018-06-02T11:31:30.727Z,6.72
2018-06-02T11:34:02.950Z,9.77
2018-06-02T11:36:34.837Z,5.05
2018-06-02T11:39:06.970Z,6.15
2018-06-02T11:41:39.139Z,6.57
2018-06-02T11:44:11.111Z,4.40
2018-06-02T11:46:42.931Z,5.12
2018-06-02T11:49:14.832Z,5.68
2018-06-02T11:51:46.990Z,5.15
2018-06-02T11:54:18.890Z,3.58
2018-06-02T11:56:50.787Z,4.30
2018-06-02T11:59:23.447Z,3.17
2018-06-02T12:01:55.344Z,3.72
2018-06-02T12:04:27.251Z,3.25
2018-06-02T12:06:59.183Z,2.90
2018-06-02T12:09:31.806Z,4.95
2018-06-02T12:12:03.689Z,7.65
2018-06-02T12:14:36.359Z,6.40
2018-06-02T12:17:08.551Z,4.97
2018-06-02T12:19:40.443Z,5.25
2018-06-02T12:22:12.318Z,5.35
2018-06-02T12:24:44.229Z,4.75
2018-06-02T12:27:17.141Z,4.15
2018-06-02T12:29:49.035Z,4.47
2018-06-02T12:32:20.933Z,6.82
2018-06-02T12:34:53.602Z,4.50
2018-06-02T12:37:26.278Z,3.60
2018-06-02T12:39:58.936Z,4.37
2018-06-02T12:42:30.826Z,5.40
2018-06-02T12:45:02.743Z,4.12
2018-06-02T12:47:34.618Z,4.30
2018-06-02T12:50:06.517Z,2.90
2018-06-02T12:52:38.467Z,3.70
2018-06-02T12:55:10.747Z,2.12
2018-06-02T12:57:42.643Z,6.43
2018-06-02T13:00:14.559Z,3.50
2018-06-02T13:02:47.210Z,2.87
2018-06-02T13:05:19.106Z,7.70
2018-06-02T13:07:50.979Z,2.28
2018-06-02T13:10:22.880Z,3.62
2018-06-02T13:12:54.754Z,3.08
2018-06-02T13:15:26.680Z,5.82
2018-06-02T13:17:58.555Z,4.43
2018-06-02T13:20:30.487Z,3.28
2018-06-02T13:23:02.362Z,3.30
2018-06-02T13:25:34.264Z,4.55
2018-06-02T13:28:06.929Z,3.47
2018-06-02T13:30:39.138Z,4.12
2018-06-02T13:33:11.069Z,3.87
2018-06-02T13:35:43.272Z,3.03
2018-06-02T13:38:15.158Z,2.25
2018-06-02T13:40:47.071Z,4.32
2018-06-02T13:43:19.713Z,5.40
2018-06-02T13:45:51.611Z,4.83
2018-06-02T13:48:24.266Z,2.33
2018-06-02T13:50:56.162Z,3.97
2018-06-02T13:53:28.052Z,5.32
2018-06-02T13:56:00.195Z,2.92
2018-06-02T13:58:32.073Z,4.40
2018-06-02T14:01:03.983Z,4.93
2018-06-02T14:03:36.180Z,2.03
2018-06-02T14:06:08.103Z,6.83
2018-06-02T14:08:39.985Z,8.13
2018-06-02T14:11:12.848Z,3.10
2018-06-02T14:13:44.735Z,5.50
2018-06-02T14:16:17.403Z,5.18
2018-06-02T14:18:50.074Z,6.53
2018-06-02T14:21:21.994Z,4.57
2018-06-02T14:23:54.349Z,2.70
2018-06-02T14:26:26.255Z,2.10
2018-06-02T14:28:58.137Z,3.03
2018-06-02T14:31:31.046Z,2.15
2018-06-02T14:34:02.934Z,3.83
2018-06-02T14:36:34.839Z,2.53
2018-06-02T14:39:07.486Z,4.50
2018-06-02T14:41:39.398Z,3.15
2018-06-02T14:44:11.563Z,2.43
2018-06-02T14:46:43.470Z,2.60
2018-06-02T14:49:15.388Z,2.47
2018-06-02T14:51:47.285Z,2.70
2018-06-02T14:54:19.515Z,3.70
2018-06-02T14:56:51.682Z,4.55
2018-06-02T14:59:23.581Z,4.57
2018-06-02T15:01:55.517Z,2.25
2018-06-02T15:04:27.410Z,3.80
2018-06-02T15:06:59.631Z,2.63
2018-06-02T15:09:31.533Z,2.77
2018-06-02T15:12:03.430Z,3.03
2018-06-02T15:14:36.083Z,3.00
2018-06-02T15:17:07.978Z,5.20
2018-06-02T15:19:40.622Z,1.60
2018-06-02T15:22:12.533Z,4.93
2018-06-02T15:24:44.694Z,2.53
2018-06-02T15:27:16.620Z,2.37
2018-06-02T15:29:48.483Z,5.03
2018-06-02T15:32:20.426Z,2.80
2018-06-02T15:34:52.324Z,4.18
2018-06-02T15:37:24.991Z,2.03
2018-06-02T15:39:56.906Z,4.28
2018-06-02T15:42:29.047Z,3.87
2018-06-02T15:45:00.938Z,5.27
2018-06-02T15:47:33.614Z,5.00
2018-06-02T15:50:05.486Z,5.60
2018-06-02T15:52:37.436Z,4.60
2018-06-02T15:55:09.571Z,3.57
2018-06-02T15:57:41.476Z,4.47
2018-06-02T16:00:13.356Z,3.00
2018-06-02T16:02:45.280Z,3.77
2018-06-02T16:05:17.154Z,4.13
2018-06-02T16:07:49.061Z,4.17
2018-06-02T16:10:21.706Z,3.70
2018-06-02T16:12:53.667Z,2.90
2018-06-02T16:15:25.507Z,4.13
2018-06-02T16:17:57.414Z,6.73
2018-06-02T16:20:30.071Z,6.03
2018-06-02T16:23:02.279Z,3.00
2018-06-02T16:25:34.162Z,3.77
2018-06-02T16:28:06.065Z,3.10
2018-06-02T16:30:37.942Z,3.47
2018-06-02T16:33:10.598Z,4.73
2018-06-02T16:35:42.478Z,6.17
2018-06-02T16:38:15.146Z,6.17
2018-06-02T16:40:47.353Z,9.10
2018-06-02T16:43:19.251Z,3.97
2018-06-02T16:45:51.378Z,7.43
2018-06-02T16:48:23.690Z,5.53
2018-06-02T16:50:55.570Z,3.73
2018-06-02T16:53:27.526Z,4.30
2018-06-02T16:55:59.400Z,4.13
2018-06-02T16:58:31.322Z,5.17
2018-06-02T17:01:03.206Z,4.10
2018-06-02T17:03:35.103Z,10.40
2018-06-02T17:06:07.786Z,13.73
2018-06-02T17:08:39.696Z,60.97
2018-06-02T17:11:11.814Z,96.70
2018-06-02T17:13:43.710Z,45.70
2018-06-02T17:16:15.587Z,9.87
2018-06-02T17:18:47.802Z,4.77
2018-06-02T17:21:19.968Z,8.10
2018-06-02T17:23:51.876Z,4.20
2018-06-02T17:26:23.750Z,7.20
2018-06-02T17:28:55.664Z,2.50
2018-06-02T17:31:27.537Z,4.00
2018-06-02T17:33:59.450Z,4.90
2018-06-02T17:36:32.090Z,3.17
2018-06-02T17:39:04.679Z,4.47
2018-06-02T17:41:36.553Z,3.50
2018-06-02T17:44:08.460Z,3.57
2018-06-02T17:46:40.334Z,5.10
2018-06-02T17:49:12.228Z,4.07
2018-06-02T17:51:44.330Z,4.53
2018-06-02T17:54:16.219Z,7.30
2018-06-02T17:56:49.124Z,6.67
2018-06-02T17:59:21.025Z,7.37
2018-06-02T18:01:53.658Z,5.70
2018-06-02T18:04:25.568Z,10.33
2018-06-02T18:06:58.207Z,5.73
2018-06-02T18:09:30.119Z,10.10
2018-06-02T18:12:02.012Z,4.97
2018-06-02T18:14:33.962Z,6.53
2018-06-02T18:17:05.842Z,6.83
2018-06-02T18:19:37.751Z,7.63
2018-06-02T18:22:09.639Z,4.93
2018-06-02T18:24:41.968Z,4.30
2018-06-02T18:27:14.610Z,2.90
2018-06-02T18:29:46.502Z,3.43
2018-06-02T18:32:19.240Z,6.90
2018-06-02T18:34:51.126Z,7.77
2018-06-02T18:37:23.041Z,4.00
2018-06-02T18:39:54.935Z,7.40
2018-06-02T18:42:26.815Z,5.17
2018-06-02T18:44:58.734Z,3.07
2018-06-02T18:47:30.615Z,3.17
2018-06-02T18:50:02.514Z,3.20
2018-06-02T18:52:35.426Z,2.77
2018-06-02T18:55:07.326Z,2.37
2018-06-02T18:57:39.197Z,3.43
2018-06-02T19:00:11.114Z,2.20
2018-06-02T19:02:43.001Z,3.60
2018-06-02T19:05:14.902Z,5.33
2018-06-02T19:07:47.542Z,3.27
2018-06-02T19:10:19.453Z,3.33
2018-06-02T19:12:51.326Z,2.50
2018-06-02T19:15:23.240Z,2.63
2018-06-02T19:17:55.127Z,7.87
2018-06-02T19:20:27.017Z,5.10
2018-06-02T19:22:58.890Z,5.53
2018-06-02T19:25:30.818Z,4.13
2018-06-02T19:28:02.690Z,5.07
2018-06-02T19:30:34.587Z,3.10
2018-06-02T19:33:06.460Z,4.37
2018-06-02T19:35:38.358Z,3.40
2018-06-02T19:38:10.234Z,3.27
2018-06-02T19:40:42.162Z,4.27
2018-06-02T19:43:14.811Z,4.10
2018-06-02T19:45:46.713Z,3.60
2018-06-02T19:48:18.590Z,4.73
2018-06-02T19:51:19.181Z,4.27
2018-06-02T19:53:51.606Z,6.53
2018-06-02T19:56:24.073Z,4.53
2018-06-02T19:58:56.786Z,5.63
2018-06-02T20:01:29.227Z,4.67
2018-06-02T20:04:01.636Z,4.77
2018-06-02T20:06:34.058Z,4.60
2018-06-02T20:09:06.526Z,5.40
2018-06-02T20:11:39.046Z,4.63
2018-06-02T20:14:11.457Z,8.37
2018-06-02T20:16:44.151Z,4.73
2018-06-02T20:19:16.562Z,4.13
2018-06-02T20:21:49.613Z,16.43
2018-06-02T20:24:22.254Z,6.13
2018-06-02T20:26:55.278Z,9.13
2018-06-02T20:29:27.683Z,9.10
2018-06-02T20:32:00.118Z,5.50
2018-06-02T20:34:33.011Z,9.27
2018-06-02T20:37:05.456Z,8.20
2018-06-02T20:39:38.124Z,6.97
2018-06-02T20:42:10.573Z,5.10
2018-06-02T20:44:43.029Z,15.93
2018-06-02T20:47:15.452Z,7.97
2018-06-02T20:49:47.906Z,5.07
2018-06-02T20:52:20.306Z,8.10
2018-06-02T20:54:52.731Z,8.07
2018-06-02T20:57:25.494Z,7.73
2018-06-02T20:59:58.118Z,6.37
2018-06-02T21:02:30.515Z,7.57
2018-06-02T21:05:02.912Z,11.70
2018-06-02T21:07:35.322Z,13.07
2018-06-02T21:10:07.718Z,8.10
2018-06-02T21:12:40.136Z,8.50
2018-06-02T21:15:12.517Z,7.37
2018-06-02T21:17:44.929Z,7.67
2018-06-02T21:20:17.922Z,9.00
2018-06-02T21:22:50.373Z,5.87
2018-06-02T21:25:23.038Z,7.97
2018-06-02T21:27:55.467Z,5.63
2018-06-02T21:30:27.918Z,6.80
2018-06-02T21:33:00.634Z,5.40
2018-06-02T21:35:33.050Z,11.57
2018-06-02T21:38:05.479Z,7.13
2018-06-02T21:40:38.227Z,8.37
2018-06-02T21:43:10.719Z,6.77
2018-06-02T21:45:43.138Z,8.40
2018-06-02T21:48:15.783Z,7.63
2018-06-02T21:50:48.191Z,9.47
2018-06-02T21:53:20.635Z,8.93
2018-06-02T21:55:53.707Z,13.60
2018-06-02T21:58:26.123Z,7.70
2018-06-02T22:00:58.577Z,11.77
2018-06-02T22:03:31.006Z,9.80
2018-06-02T22:06:03.411Z,9.27
2018-06-02T22:08:35.859Z,9.97
2018-06-02T22:11:08.251Z,10.57
2018-06-02T22:13:40.928Z,8.03
2018-06-02T22:16:13.390Z,10.97
2018-06-02T22:18:45.822Z,8.60
2018-06-02T22:21:18.523Z,8.57
2018-06-02T22:23:50.944Z,11.57
2018-06-02T22:26:23.430Z,7.00
2018-06-02T22:28:56.166Z,13.33
2018-06-02T22:31:28.388Z,10.83
2018-06-02T22:34:00.815Z,9.23
2018-06-02T22:36:33.214Z,10.80
2018-06-02T22:39:05.947Z,12.30
2018-06-02T22:41:38.358Z,10.97
2018-06-02T22:44:10.839Z,9.17
2018-06-02T22:46:43.318Z,11.13
2018-06-02T22:49:15.739Z,16.50
2018-06-02T22:51:56.919Z,10.03
2018-06-02T22:54:29.423Z,13.00
2018-06-02T22:57:01.855Z,11.00
2018-06-02T22:59:34.364Z,11.70
2018-06-02T23:02:06.762Z,10.63
2018-06-02T23:04:39.207Z,9.50
2018-06-02T23:07:11.654Z,12.97
2018-06-02T23:09:44.297Z,15.00
2018-06-02T23:12:16.989Z,14.13
2018-06-02T23:14:49.932Z,14.70
2018-06-02T23:17:22.608Z,12.33
2018-06-02T23:19:55.010Z,14.37
2018-06-02T23:22:39.014Z,11.53
2018-06-02T23:25:11.703Z,13.53
2018-06-02T23:27:44.385Z,15.53
2018-06-02T23:30:16.797Z,11.20
2018-06-02T23:32:49.186Z,13.37
2018-06-02T23:35:21.586Z,11.87
2018-06-02T23:37:53.970Z,18.40
2018-06-02T23:40:26.366Z,11.60
2018-06-02T23:42:58.802Z,11.77
2018-06-02T23:45:31.189Z,13.37
2018-06-02T23:48:03.681Z,13.77
2018-06-02T23:50:36.322Z,14.73
2018-06-02T23:53:08.971Z,15.30
2018-06-02T23:55:41.702Z,14.30
2018-06-02T23:58:14.082Z,10.33
